Latest Weather Observations for Adele Island

IDW60801

Issued at 7:33 pm WST Wednesday 28 September 2016 (issued every 30 minutes, with the page automatically refreshed every 10 minutes)

About weather observations | Map of weather stations | Latest weather observations for WA | Other Formats
Station Details ID: 200735 Name: ADELE ISLAND Lat: -15.51 Lon: 123.16 Height: 4.6 m
Data from the previous 72 hours. | See also: Recent months at Adele Island
Date/Time
WST
Temp
°C
App
Temp
°C
Dew
Point
°C
Rel
Hum
%
Delta-T
°C
Wind Press
QNH
hPa
Press
MSL
hPa
Rain since
9am
mm
Dir  Spd
km/h
Gust
km/h
Spd
kts
Gust
kts
28/07:30pm - - - - - WSW 19 22 10 12 1010.3 1010.2 -
28/07:00pm - - - - - WSW 20 24 11 13 1010.2 1010.1 -
28/06:30pm - - - - - WSW 20 24 11 13 1010.0 1009.9 -
28/06:00pm - - - - - WSW 17 20 9 11 1009.8 1009.7 -
28/05:30pm - - - - - WSW 17 19 9 10 1009.5 1009.4 -
28/05:00pm - - - - - WSW 11 15 6 8 1009.0 1008.9 -
28/04:30pm - - - - - W 11 13 6 7 1008.7 1008.6 -
28/04:00pm - - - - - WSW 13 15 7 8 1008.7 1008.6 -
28/03:30pm - - - - - SW 15 19 8 10 1008.7 1008.6 -
28/03:00pm - - - - - SW 15 20 8 11 1008.9 1008.8 -
28/02:30pm - - - - - WSW 17 20 9 11 1009.1 1009.0 -
28/02:00pm - - - - - SW 17 20 9 11 1009.4 1009.3 -
28/01:30pm - - - - - WSW 19 24 10 13 1009.8 1009.7 -
28/01:00pm - - - - - SSW 19 24 10 13 1010.2 1010.1 -
28/12:30pm - - - - - S 19 26 10 14 1010.6 1010.5 -
28/12:00pm - - - - - S 22 30 12 16 1011.2 1011.1 -
28/11:30am - - - - - S 24 35 13 19 1011.7 1011.6 -
28/11:00am - - - - - SSE 28 35 15 19 1011.9 1011.8 -
28/10:30am - - - - - S 30 35 16 19 1012.2 1012.1 -
28/10:00am - - - - - S 30 35 16 19 1012.6 1012.5 -
28/09:30am - - - - - S 30 39 16 21 1012.6 1012.5 -
28/09:00am - - - - - S 28 35 15 19 1012.5 1012.4 -
28/08:30am - - - - - S 24 32 13 17 1012.5 1012.4 -
28/08:00am - - - - - S 26 33 14 18 1012.5 1012.4 -
28/07:30am - - - - - S 26 30 14 16 1012.3 1012.2 -
28/07:00am - - - - - S 20 26 11 14 1012.0 1011.9 -
28/06:30am - - - - - S 19 22 10 12 1011.5 1011.4 -
28/06:00am - - - - - SSW 15 20 8 11 1011.4 1011.3 -
28/05:30am - - - - - SSW 17 20 9 11 1011.0 1010.9 -
28/05:00am - - - - - SSW 20 24 11 13 1010.5 1010.4 -
28/04:30am - - - - - SW 20 24 11 13 1010.2 1010.1 -
28/04:00am - - - - - SW 19 22 10 12 1009.9 1009.8 -
28/03:30am - - - - - SW 22 26 12 14 1009.7 1009.6 -
28/03:00am - - - - - SW 22 26 12 14 1009.6 1009.5 -
28/02:30am - - - - - WSW 24 30 13 16 1009.8 1009.7 -
28/02:00am - - - - - WSW 26 32 14 17 1009.9 1009.8 -
28/01:30am - - - - - WSW 26 30 14 16 1009.9 1009.8 -
28/01:00am - - - - - WSW 24 30 13 16 1010.1 1010.0 -
28/12:30am - - - - - WSW 26 32 14 17 1010.5 1010.4 -
28/12:00am - - - - - WSW 26 32 14 17 1010.9 1010.8 -
 
Date/Time
WST
Temp
°C
App
Temp
°C
Dew
Point
°C
Rel
Hum
%
Delta-T
°C
Wind Press
QNH
hPa
Press
MSL
hPa
Rain since
9am
mm
Dir  Spd
km/h
Gust
km/h
Spd
kts
Gust
kts
27/11:30pm - - - - - W 24 30 13 16 1011.0 1010.9 -
27/11:00pm - - - - - W 26 32 14 17 1011.1 1011.0 -
27/10:30pm - - - - - W 24 28 13 15 1011.7 1011.6 -
27/10:00pm - - - - - W 20 24 11 13 1011.9 1011.8 -
27/09:30pm - - - - - W 20 24 11 13 1012.0 1011.9 -
27/09:00pm - - - - - W 22 26 12 14 1011.9 1011.8 -
27/08:30pm - - - - - WSW 24 28 13 15 1011.9 1011.8 -
27/08:00pm - - - - - W 22 26 12 14 1011.7 1011.6 -
27/07:30pm - - - - - W 20 26 11 14 1011.5 1011.4 -
27/07:00pm - - - - - W 20 24 11 13 1011.2 1011.1 -
27/06:30pm - - - - - W 17 20 9 11 1010.7 1010.6 -
27/06:00pm - - - - - W 17 20 9 11 1010.4 1010.3 -
27/05:30pm - - - - - W 17 20 9 11 1010.0 1009.9 -
27/05:00pm - - - - - W 13 17 7 9 1009.7 1009.6 -
27/04:30pm - - - - - WSW 15 20 8 11 1009.3 1009.2 -
27/04:00pm - - - - - WSW 17 22 9 12 1009.1 1009.0 -
27/03:30pm - - - - - SW 17 20 9 11 1009.0 1008.9 -
27/03:00pm - - - - - SW 15 20 8 11 1009.0 1008.9 -
27/02:30pm - - - - - SW 17 20 9 11 1009.2 1009.1 -
27/02:00pm - - - - - WSW 15 20 8 11 1009.4 1009.3 -
27/01:30pm - - - - - WSW 17 20 9 11 1009.6 1009.5 -
27/01:00pm - - - - - SW 17 20 9 11 1009.9 1009.8 -
27/12:30pm - - - - - SW 19 22 10 12 1010.3 1010.2 -
27/12:00pm - - - - - SSW 17 22 9 12 1010.7 1010.6 -
27/11:30am - - - - - SSW 20 28 11 15 1011.2 1011.1 -
27/11:00am - - - - - SSW 22 30 12 16 1011.5 1011.4 -
27/10:30am - - - - - SSW 22 28 12 15 1011.8 1011.7 -
27/10:00am - - - - - SSW 22 26 12 14 1012.0 1011.9 -
27/09:30am - - - - - SSW 19 24 10 13 1012.2 1012.1 -
27/09:00am - - - - - SW 19 20 10 11 1012.5 1012.4 -
27/08:30am - - - - - SSW 19 22 10 12 1012.6 1012.5 -
27/08:00am - - - - - SSW 17 20 9 11 1012.5 1012.4 -
27/07:30am - - - - - SSW 19 22 10 12 1012.3 1012.2 -
27/07:00am - - - - - SSW 15 17 8 9 1012.0 1011.9 -
27/06:30am - - - - - S 9 11 5 6 1011.7 1011.6 -
27/06:00am - - - - - SSW 13 15 7 8 1011.5 1011.4 -
27/05:30am - - - - - SW 13 15 7 8 1011.4 1011.3 -
27/05:00am - - - - - SW 15 17 8 9 1011.2 1011.1 -
27/04:30am - - - - - SW 19 22 10 12 1010.9 1010.8 -
27/04:00am - - - - - SW 17 20 9 11 1010.6 1010.5 -
27/03:30am - - - - - SW 17 19 9 10 1010.5 1010.4 -
27/03:00am - - - - - SW 19 22 10 12 1010.3 1010.2 -
27/02:30am - - - - - SW 22 26 12 14 1010.2 1010.1 -
27/02:00am - - - - - WSW 22 26 12 14 1010.2 1010.1 -
27/01:30am - - - - - WSW 22 28 12 15 1010.4 1010.3 -
27/01:00am - - - - - WSW 22 28 12 15 1010.6 1010.5 -
27/12:30am - - - - - WSW 22 26 12 14 1011.1 1011.0 -
27/12:00am - - - - - W 24 28 13 15 1011.2 1011.1 -
 
Date/Time
WST
Temp
°C
App
Temp
°C
Dew
Point
°C
Rel
Hum
%
Delta-T
°C
Wind Press
QNH
hPa
Press
MSL
hPa
Rain since
9am
mm
Dir  Spd
km/h
Gust
km/h
Spd
kts
Gust
kts
26/11:30pm - - - - - W 24 28 13 15 1011.5 1011.4 -
26/11:00pm - - - - - WSW 24 28 13 15 1011.9 1011.8 -
26/10:30pm - - - - - WSW 22 28 12 15 1012.0 1011.9 -
26/10:00pm - - - - - WSW 24 30 13 16 1012.1 1012.0 -
26/09:30pm - - - - - WSW 22 28 12 15 1012.3 1012.2 -
26/09:00pm - - - - - WSW 22 28 12 15 1012.4 1012.3 -
26/08:30pm - - - - - WSW 20 26 11 14 1012.2 1012.1 -
26/08:00pm - - - - - WSW 20 24 11 13 1011.9 1011.8 -
26/07:30pm - - - - - WSW 20 26 11 14 1011.6 1011.5 -
26/07:00pm - - - - - WSW 22 26 12 14 1011.4 1011.3 -
26/06:30pm - - - - - WSW 24 30 13 16 1010.9 1010.8 -
26/06:00pm - - - - - WSW 24 30 13 16 1010.4 1010.3 -
26/05:30pm - - - - - SW 22 28 12 15 1009.9 1009.8 -
26/05:00pm - - - - - SW 22 28 12 15 1009.5 1009.4 -
26/04:30pm - - - - - SW 22 28 12 15 1009.1 1009.0 -
26/04:00pm - - - - - SW 20 26 11 14 1009.1 1009.0 -
26/03:30pm - - - - - SW 22 28 12 15 1009.3 1009.2 -
26/03:00pm - - - - - SW 20 26 11 14 1009.3 1009.2 -
26/02:30pm - - - - - SW 19 24 10 13 1009.2 1009.1 -
26/02:00pm - - - - - SSW 20 26 11 14 1009.4 1009.3 -
26/01:30pm - - - - - SSW 22 32 12 17 1009.7 1009.6 -
26/01:00pm - - - - - SSW 24 32 13 17 1009.9 1009.8 -
26/12:30pm - - - - - SSW 24 28 13 15 1010.2 1010.1 -
26/12:00pm - - - - - SSW 24 30 13 16 1010.6 1010.5 -
26/11:30am - - - - - SSW 24 32 13 17 1011.1 1011.0 -
26/11:00am - - - - - SSW 22 30 12 16 1011.3 1011.2 -
26/10:30am - - - - - S 22 28 12 15 1011.4 1011.3 -
26/10:00am - - - - - S 19 24 10 13 1011.8 1011.7 -
26/09:30am - - - - - S 19 26 10 14 1011.9 1011.8 -
26/09:00am - - - - - S 19 24 10 13 1011.9 1011.8 -
26/08:30am - - - - - SSE 19 24 10 13 1011.8 1011.7 -
26/08:00am - - - - - SSE 19 22 10 12 1011.6 1011.5 -
26/07:30am - - - - - S 19 24 10 13 1011.4 1011.3 -
26/07:00am - - - - - S 19 24 10 13 1011.0 1010.9 -
26/06:30am - - - - - S 19 26 10 14 1010.7 1010.6 -
26/06:00am - - - - - S 20 26 11 14 1010.3 1010.2 -
26/05:30am - - - - - SSW 24 28 13 15 1009.9 1009.8 -
26/05:00am - - - - - SSW 24 28 13 15 1009.7 1009.6 -
26/04:30am - - - - - SW 24 28 13 15 1009.3 1009.2 -
26/04:00am - - - - - SW 22 26 12 14 1009.1 1009.0 -
26/03:30am - - - - - SW 20 26 11 14 1008.8 1008.7 -
26/03:00am - - - - - SW 22 26 12 14 1008.7 1008.6 -
26/02:30am - - - - - SW 20 24 11 13 1008.8 1008.7 -
26/02:00am - - - - - SW 24 30 13 16 1008.9 1008.8 -
26/01:30am - - - - - SW 24 30 13 16 1009.1 1009.0 -
26/01:00am - - - - - SW 24 30 13 16 1009.5 1009.4 -
26/12:30am - - - - - SW 22 28 12 15 1009.7 1009.6 -
26/12:00am - - - - - SW 24 30 13 16 1010.1 1010.0 -
 
Date/Time
WST
Temp
°C
App
Temp
°C
Dew
Point
°C
Rel
Hum
%
Delta-T
°C
Wind Press
QNH
hPa
Press
MSL
hPa
Rain since
9am
mm
Dir  Spd
km/h
Gust
km/h
Spd
kts
Gust
kts
25/11:30pm - - - - - SW 24 30 13 16 1010.6 1010.5 -
25/11:00pm - - - - - SW 24 30 13 16 1010.7 1010.6 -
25/10:30pm - - - - - SW 26 32 14 17 1010.8 1010.7 -
25/10:00pm - - - - - SW 24 28 13 15 1011.1 1011.0 -
25/09:30pm - - - - - SW 24 30 13 16 1011.1 1011.0 -
25/09:00pm - - - - - SW 22 28 12 15 1011.0 1010.9 -
25/08:30pm - - - - - SW 24 30 13 16 1010.9 1010.8 -
25/08:00pm - - - - - SW 22 26 12 14 1010.7 1010.6 -

Other Formats:

Comma delimited format used in spreadsheet applications
http://www.bom.gov.au/fwo/IDW60801/IDW60801.94210.axf

JavaScript Object Notation format (JSON) in row-major order
http://www.bom.gov.au/fwo/IDW60801/IDW60801.94210.json